createdAt,value
2023-03-29T00:00:14.202Z,4.60
2023-03-29T00:05:18.192Z,4.68
2023-03-29T00:10:24.138Z,5.10
2023-03-29T00:15:26.209Z,4.13
2023-03-29T00:20:28.983Z,3.67
2023-03-29T00:25:30.709Z,5.43
2023-03-29T00:30:32.326Z,5.25
2023-03-29T00:35:34.174Z,4.15
2023-03-29T00:40:42.454Z,4.93
2023-03-29T00:45:44.093Z,4.78
2023-03-29T00:50:52.820Z,4.78
2023-03-29T00:56:11.237Z,5.10
2023-03-29T01:01:17.632Z,4.72
2023-03-29T01:06:24.745Z,6.07
2023-03-29T01:11:36.048Z,4.80
2023-03-29T01:16:38.587Z,6.00
2023-03-29T01:21:47.933Z,6.22
2023-03-29T01:26:57.545Z,6.43
2023-03-29T01:32:11.956Z,6.78
2023-03-29T01:37:24.751Z,6.68
2023-03-29T01:42:38.340Z,6.38
2023-03-29T01:47:50.420Z,7.72
2023-03-29T01:53:14.548Z,7.28
2023-03-29T01:58:19.108Z,6.70
2023-03-29T02:03:26.631Z,6.32
2023-03-29T02:08:29.902Z,6.90
2023-03-29T02:13:32.297Z,6.43
2023-03-29T02:18:34.975Z,6.35
2023-03-29T02:23:46.745Z,7.30
2023-03-29T02:28:48.572Z,7.68
2023-03-29T02:33:53.127Z,6.40
2023-03-29T02:38:56.032Z,8.20
2023-03-29T02:43:59.612Z,7.28
2023-03-29T02:49:01.362Z,6.57
2023-03-29T02:54:15.551Z,6.85
2023-03-29T02:59:22.720Z,6.72
2023-03-29T03:04:25.535Z,8.75
2023-03-29T03:09:27.476Z,8.35
2023-03-29T03:14:29.515Z,8.18
2023-03-29T03:19:31.608Z,10.38
2023-03-29T03:24:33.598Z,8.02
2023-03-29T03:29:36.512Z,8.48
2023-03-29T03:34:38.698Z,8.73
2023-03-29T03:39:40.371Z,8.20
2023-03-29T03:44:42.608Z,8.93
2023-03-29T03:49:44.301Z,8.52
2023-03-29T03:54:46.768Z,8.35
2023-03-29T03:59:49.017Z,8.38
2023-03-29T04:04:50.793Z,9.35
2023-03-29T04:09:53.135Z,7.68
2023-03-29T04:14:54.823Z,8.20
2023-03-29T04:19:57.544Z,8.80
2023-03-29T04:24:59.198Z,8.80
2023-03-29T04:30:00.927Z,7.75
2023-03-29T04:35:04.834Z,7.93
2023-03-29T04:40:14.454Z,6.95
2023-03-29T04:45:18.241Z,8.25
2023-03-29T04:50:20.075Z,9.07
2023-03-29T04:55:21.698Z,7.85
2023-03-29T05:00:27.376Z,9.63
2023-03-29T05:05:29.026Z,8.52
2023-03-29T05:10:30.658Z,7.85
2023-03-29T05:15:32.806Z,8.18
2023-03-29T05:20:34.478Z,7.82
2023-03-29T05:25:36.172Z,8.65
2023-03-29T05:30:38.118Z,9.98
2023-03-29T05:35:39.899Z,8.43
2023-03-29T05:40:41.630Z,9.05
2023-03-29T05:45:43.434Z,7.55
2023-03-29T05:50:49.615Z,8.80
2023-03-29T05:55:51.681Z,7.55
2023-03-29T06:00:53.485Z,8.38
2023-03-29T06:05:58.165Z,7.35
2023-03-29T06:11:04.485Z,8.00
2023-03-29T06:16:07.375Z,8.82
2023-03-29T06:21:09.458Z,9.52
2023-03-29T06:26:11.110Z,9.88
2023-03-29T06:31:13.269Z,9.50
2023-03-29T06:36:16.898Z,9.88
2023-03-29T06:41:18.562Z,9.50
2023-03-29T06:46:20.275Z,8.70
2023-03-29T06:51:23.377Z,10.18
2023-03-29T06:56:25.952Z,9.30
2023-03-29T07:01:28.562Z,9.48
2023-03-29T07:06:31.141Z,8.85
2023-03-29T07:11:36.478Z,9.25
2023-03-29T07:16:38.437Z,9.10
2023-03-29T07:21:40.067Z,10.00
2023-03-29T07:26:52.264Z,10.10
2023-03-29T07:32:02.369Z,9.43
2023-03-29T07:37:03.983Z,9.10
2023-03-29T07:42:06.697Z,8.93
2023-03-29T07:47:08.408Z,9.35
2023-03-29T07:52:10.110Z,8.45
2023-03-29T07:57:12.237Z,7.90
2023-03-29T08:02:16.649Z,7.65
2023-03-29T08:07:20.043Z,7.97
2023-03-29T08:12:24.988Z,7.53
2023-03-29T08:17:26.799Z,7.95
2023-03-29T08:22:28.550Z,8.10
2023-03-29T08:27:33.426Z,6.95
2023-03-29T08:32:36.904Z,7.43
2023-03-29T08:37:38.750Z,7.78
2023-03-29T08:42:56.802Z,7.05
2023-03-29T08:48:04.245Z,7.55
2023-03-29T08:53:15.512Z,6.57
2023-03-29T08:58:21.221Z,6.68
2023-03-29T09:03:31.643Z,6.90
2023-03-29T09:08:40.251Z,6.00
2023-03-29T09:13:50.890Z,6.00
2023-03-29T09:18:59.264Z,6.07
2023-03-29T09:24:27.136Z,6.10
2023-03-29T09:29:41.190Z,6.35
2023-03-29T09:34:54.439Z,6.18
2023-03-29T09:39:57.629Z,5.88
2023-03-29T09:45:08.569Z,6.07
2023-03-29T09:50:30.263Z,6.18
2023-03-29T09:55:36.512Z,5.47
2023-03-29T10:07:00.731Z,4.97
2023-03-29T10:25:14.366Z,4.80
2023-03-29T10:30:23.123Z,5.13
2023-03-29T10:35:44.385Z,5.13
2023-03-29T10:40:48.150Z,5.13
2023-03-29T10:45:52.200Z,4.70
2023-03-29T10:50:57.385Z,5.10
2023-03-29T10:56:24.507Z,4.68
2023-03-29T11:08:07.297Z,4.97
2023-03-29T11:13:21.071Z,4.77
2023-03-29T11:18:28.859Z,4.15
2023-03-29T11:23:39.851Z,4.18
2023-03-29T11:28:57.735Z,3.90
2023-03-29T11:34:08.133Z,4.35
2023-03-29T11:39:55.927Z,3.17
2023-03-29T11:45:00.131Z,2.55
2023-03-29T11:50:15.563Z,2.20
2023-03-29T11:55:23.649Z,2.33
2023-03-29T12:00:31.017Z,2.22
2023-03-29T12:05:39.763Z,2.22
2023-03-29T12:10:48.073Z,2.10
2023-03-29T12:16:16.652Z,2.10
2023-03-29T12:21:23.306Z,2.20
2023-03-29T12:26:52.798Z,2.20
2023-03-29T12:38:28.721Z,2.22
2023-03-29T12:49:58.957Z,2.53
2023-03-29T12:55:04.520Z,1.90
2023-03-29T13:00:42.694Z,1.83
2023-03-29T13:05:44.560Z,2.20
2023-03-29T13:10:53.463Z,1.67
2023-03-29T13:15:56.299Z,1.70
2023-03-29T13:21:09.748Z,1.70
2023-03-29T15:20:51.486Z,1.67
2023-03-29T15:32:35.884Z,1.70
2023-03-29T15:37:37.888Z,2.55
2023-03-29T15:42:39.690Z,1.80
2023-03-29T15:47:41.360Z,1.90
2023-03-29T15:52:43.204Z,1.70
2023-03-29T15:57:48.596Z,5.03
2023-03-29T16:02:51.462Z,3.88
2023-03-29T16:07:53.086Z,2.90
2023-03-29T16:12:54.699Z,2.83
2023-03-29T16:17:56.616Z,1.90
2023-03-29T16:22:58.353Z,1.92
2023-03-29T16:27:59.998Z,2.08
2023-03-29T16:33:06.306Z,1.92
2023-03-29T16:50:52.479Z,2.08
2023-03-29T16:55:54.654Z,1.88
2023-03-29T17:00:57.182Z,1.77
2023-03-29T17:05:59.274Z,2.10
2023-03-29T17:11:01.455Z,1.60
2023-03-29T17:16:03.974Z,1.52
2023-03-29T17:21:06.292Z,2.05
2023-03-29T18:48:08.198Z,6.20
2023-03-29T18:59:36.625Z,4.40
2023-03-29T19:04:38.572Z,3.50
2023-03-29T19:09:41.732Z,2.72
2023-03-29T19:14:43.596Z,2.90
2023-03-29T19:19:45.566Z,3.75
2023-03-29T19:24:47.370Z,5.55
2023-03-29T19:29:49.735Z,3.88
2023-03-29T19:34:52.251Z,5.85
2023-03-29T19:39:55.797Z,5.07
2023-03-29T19:44:57.520Z,4.65
2023-03-29T19:50:00.131Z,3.72
2023-03-29T19:55:02.261Z,4.63
2023-03-29T20:00:08.071Z,4.90
2023-03-29T20:05:15.702Z,4.25
2023-03-29T20:10:17.592Z,3.97
2023-03-29T20:15:19.480Z,3.92
2023-03-29T20:20:23.077Z,4.43
2023-03-29T20:25:24.999Z,4.55
2023-03-29T20:30:26.921Z,4.90
2023-03-29T20:35:28.775Z,5.00
2023-03-29T20:40:31.628Z,5.18
2023-03-29T20:45:46.188Z,5.07
2023-03-29T20:50:54.289Z,5.67
2023-03-29T20:55:56.006Z,4.80
2023-03-29T21:00:58.907Z,4.97
2023-03-29T21:06:02.352Z,5.13
2023-03-29T21:11:04.237Z,4.60
2023-03-29T21:16:06.992Z,4.90
2023-03-29T21:21:10.340Z,4.82
2023-03-29T21:26:12.068Z,4.60
2023-03-29T21:31:13.869Z,5.30
2023-03-29T21:36:15.855Z,5.30
2023-03-29T21:41:18.738Z,5.68
2023-03-29T21:46:20.660Z,5.70
2023-03-29T21:51:22.414Z,7.43
2023-03-29T21:56:24.127Z,6.53
2023-03-29T22:01:25.909Z,6.30
2023-03-29T22:06:27.636Z,6.53
2023-03-29T22:11:30.484Z,5.20
2023-03-29T22:16:32.438Z,6.57
2023-03-29T22:21:37.376Z,9.02
2023-03-29T22:26:39.195Z,8.70
2023-03-29T22:31:41.038Z,10.27
2023-03-29T22:36:42.772Z,10.68
2023-03-29T22:41:44.566Z,8.30
2023-03-29T22:46:46.820Z,8.30
2023-03-29T22:51:48.895Z,7.15
2023-03-29T22:56:51.050Z,5.45
2023-03-29T23:01:53.087Z,6.10
2023-03-29T23:06:54.906Z,6.53
2023-03-29T23:11:56.647Z,5.35
2023-03-29T23:16:58.396Z,4.65
2023-03-29T23:22:00.163Z,3.95
2023-03-29T23:27:03.019Z,4.82
2023-03-29T23:32:05.025Z,5.78
2023-03-29T23:37:06.755Z,5.30
2023-03-29T23:42:08.539Z,4.90
2023-03-29T23:47:10.254Z,4.60
2023-03-29T23:52:12.589Z,13.32
2023-03-29T23:57:14.345Z,7.45
